sensor_id;sensor_type;location;lat;lon;timestamp;pressure;altitude;pressure_sealevel;temperature;humidity
64243;BME280;50573;51.512;5.386;2023-06-14T00:05:15;169720.00;;;19.58;51.19
64243;BME280;50573;51.512;5.386;2023-06-14T00:15:18;169660.03;;;19.35;52.10
64243;BME280;50573;51.512;5.386;2023-06-14T00:25:23;169620.00;;;19.20;51.65
64243;BME280;50573;51.512;5.386;2023-06-14T00:35:30;169580.03;;;19.05;51.63
64243;BME280;50573;51.512;5.386;2023-06-14T00:45:34;169513.44;;;18.80;51.58
64243;BME280;50573;51.512;5.386;2023-06-14T00:55:37;169462.84;;;18.61;51.27
64243;BME280;50573;51.512;5.386;2023-06-14T01:05:42;169426.88;;;18.47;51.14
64243;BME280;50573;51.512;5.386;2023-06-14T01:15:46;169365.56;;;18.24;51.53
64243;BME280;50573;51.512;5.386;2023-06-14T01:25:51;169320.31;;;18.07;51.21
64243;BME280;50573;51.512;5.386;2023-06-14T01:35:56;169268.38;;;17.87;51.87
64243;BME280;50573;51.512;5.386;2023-06-14T01:46:01;169248.38;;;17.80;51.00
64243;BME280;50573;51.512;5.386;2023-06-14T01:56:06;169243.09;;;17.78;50.93
64243;BME280;50573;51.512;5.386;2023-06-14T02:06:11;169225.78;;;17.71;51.49
64243;BME280;50573;51.512;5.386;2023-06-14T02:16:14;169205.78;;;17.64;51.72
64243;BME280;50573;51.512;5.386;2023-06-14T02:26:21;169160.56;;;17.47;52.32
64243;BME280;50573;51.512;5.386;2023-06-14T02:36:24;169139.22;;;17.39;52.62
64243;BME280;50573;51.512;5.386;2023-06-14T02:46:29;169101.97;;;17.25;54.81
64243;BME280;50573;51.512;5.386;2023-06-14T02:56:32;169060.69;;;17.09;54.13
64243;BME280;50573;51.512;5.386;2023-06-14T03:06:37;169003.44;;;16.88;55.01
64243;BME280;50573;51.512;5.386;2023-06-14T03:16:42;168979.53;;;16.79;55.27
64243;BME280;50573;51.512;5.386;2023-06-14T03:26:49;168971.56;;;16.76;55.53
64243;BME280;50573;51.512;5.386;2023-06-14T03:36:52;168954.25;;;16.69;56.08
64243;BME280;50573;51.512;5.386;2023-06-14T03:46:58;168944.94;;;16.66;57.14
64243;BME280;50573;51.512;5.386;2023-06-14T03:57:03;168948.91;;;16.67;57.93
64243;BME280;50573;51.512;5.386;2023-06-14T04:07:08;168942.28;;;16.65;57.70
64243;BME280;50573;51.512;5.386;2023-06-14T04:17:11;168966.22;;;16.74;58.12
64243;BME280;50573;51.512;5.386;2023-06-14T04:27:19;168975.53;;;16.77;58.74
64243;BME280;50573;51.512;5.386;2023-06-14T04:37:24;169032.75;;;16.99;57.38
64243;BME280;50573;51.512;5.386;2023-06-14T04:47:31;169097.94;;;17.23;57.21
64243;BME280;50573;51.512;5.386;2023-06-14T04:57:36;169159.22;;;17.46;56.94
64243;BME280;50573;51.512;5.386;2023-06-14T05:07:42;169205.78;;;17.64;56.56
64243;BME280;50573;51.512;5.386;2023-06-14T05:17:46;169291.03;;;17.96;56.84
64243;BME280;50573;51.512;5.386;2023-06-14T05:27:56;169352.22;;;18.19;56.41
64243;BME280;50573;51.512;5.386;2023-06-14T05:37:59;169414.91;;;18.43;55.38
64243;BME280;50573;51.512;5.386;2023-06-14T05:48:04;169456.16;;;18.58;54.70
64243;BME280;50573;51.512;5.386;2023-06-14T05:58:07;169560.06;;;18.97;55.07
64243;BME280;50573;51.512;5.386;2023-06-14T06:08:12;169672.03;;;19.40;53.93
64243;BME280;50573;51.512;5.386;2023-06-14T06:18:16;169741.31;;;19.66;51.94
64243;BME280;50573;51.512;5.386;2023-06-14T06:28:20;169857.28;;;20.09;51.61
64243;BME280;50573;51.512;5.386;2023-06-14T06:38:24;169978.63;;;20.55;50.75
64243;BME280;50573;51.512;5.386;2023-06-14T06:48:29;170117.38;;;21.07;48.44
64243;BME280;50573;51.512;5.386;2023-06-14T06:58:32;170144.00;;;21.17;46.91
64243;BME280;50573;51.512;5.386;2023-06-14T07:08:37;170236.06;;;21.52;46.59
64243;BME280;50573;51.512;5.386;2023-06-14T07:18:41;170330.84;;;21.87;46.39
64243;BME280;50573;51.512;5.386;2023-06-14T07:28:47;170457.63;;;22.35;47.17
64243;BME280;50573;51.512;5.386;2023-06-14T07:38:50;170490.97;;;22.48;44.24
64243;BME280;50573;51.512;5.386;2023-06-14T07:48:55;170640.53;;;23.04;44.39
64243;BME280;50573;51.512;5.386;2023-06-14T07:58:58;170635.22;;;23.02;42.57
64243;BME280;50573;51.512;5.386;2023-06-14T08:09:02;170735.38;;;23.40;41.63
64243;BME280;50573;51.512;5.386;2023-06-14T08:19:06;170802.16;;;23.65;40.00
64243;BME280;50573;51.512;5.386;2023-06-14T08:29:13;170859.56;;;23.86;39.09
64243;BME280;50573;51.512;5.386;2023-06-14T08:39:16;170967.81;;;24.27;38.48
64243;BME280;50573;51.512;5.386;2023-06-14T08:49:21;170997.25;;;24.38;37.93
64243;BME280;50573;51.512;5.386;2023-06-14T08:59:26;171057.34;;;24.60;36.46
64243;BME280;50573;51.512;5.386;2023-06-14T09:09:31;171056.00;;;24.60;34.91
64243;BME280;50573;51.512;5.386;2023-06-14T09:19:34;171138.91;;;24.91;35.14
64243;BME280;50573;51.512;5.386;2023-06-14T09:29:40;171284.63;;;25.46;33.87
64243;BME280;50573;51.512;5.386;2023-06-14T09:39:49;171316.72;;;25.58;30.70
64243;BME280;50573;51.512;5.386;2023-06-14T09:49:55;171342.13;;;25.67;30.69
64243;BME280;50573;51.512;5.386;2023-06-14T10:00:01;171264.59;;;25.38;30.19
64243;BME280;50573;51.512;5.386;2023-06-14T10:10:15;171340.78;;;25.67;31.22
64243;BME280;50573;51.512;5.386;2023-06-14T10:20:26;171306.00;;;25.54;29.83
64243;BME280;50573;51.512;5.386;2023-06-14T10:30:33;171441.09;;;26.05;29.90
64243;BME280;50573;51.512;5.386;2023-06-14T10:40:36;171459.78;;;26.12;31.62
64243;BME280;50573;51.512;5.386;2023-06-14T10:50:42;171470.50;;;26.16;30.07
64243;BME280;50573;51.512;5.386;2023-06-14T11:00:51;171407.63;;;25.92;30.33
64243;BME280;50573;51.512;5.386;2023-06-14T11:10:59;171518.66;;;26.34;30.27
64243;BME280;50573;51.512;5.386;2023-06-14T11:21:03;171568.13;;;26.52;33.06
64243;BME280;50573;51.512;5.386;2023-06-14T11:31:09;171477.19;;;26.18;31.49
64243;BME280;50573;51.512;5.386;2023-06-14T11:41:18;171593.56;;;26.62;30.90
64243;BME280;50573;51.512;5.386;2023-06-14T11:51:23;171553.44;;;26.47;30.81
64243;BME280;50573;51.512;5.386;2023-06-14T12:01:29;171498.63;;;26.26;31.52
64243;BME280;50573;51.512;5.386;2023-06-14T12:11:35;171585.50;;;26.59;30.16
64243;BME280;50573;51.512;5.386;2023-06-14T12:21:39;171619.03;;;26.71;30.84
64243;BME280;50573;51.512;5.386;2023-06-14T12:31:44;171768.88;;;27.28;29.99
64243;BME280;50573;51.512;5.386;2023-06-14T12:41:48;171687.22;;;26.97;30.68
64243;BME280;50573;51.512;5.386;2023-06-14T12:51:52;171747.44;;;27.19;30.88
64243;BME280;50573;51.512;5.386;2023-06-14T13:01:55;171764.81;;;27.26;29.12
64243;BME280;50573;51.512;5.386;2023-06-14T13:12:00;171693.91;;;26.99;28.93
64243;BME280;50573;51.512;5.386;2023-06-14T13:22:04;171838.47;;;27.54;28.53
64243;BME280;50573;51.512;5.386;2023-06-14T13:32:09;171916.06;;;27.83;29.47
64243;BME280;50573;51.512;5.386;2023-06-14T13:42:12;172025.88;;;28.24;28.62
64243;BME280;50573;51.512;5.386;2023-06-14T13:52:17;172028.53;;;28.25;29.31
64243;BME280;50573;51.512;5.386;2023-06-14T14:02:20;172115.59;;;28.58;28.42
64243;BME280;50573;51.512;5.386;2023-06-14T14:12:25;172250.88;;;29.08;26.86
64243;BME280;50573;51.512;5.386;2023-06-14T14:22:31;172312.44;;;29.31;28.35
64243;BME280;50573;51.512;5.386;2023-06-14T14:32:40;172283.00;;;29.20;27.40
64243;BME280;50573;51.512;5.386;2023-06-14T14:42:48;172395.47;;;29.62;26.87
64243;BME280;50573;51.512;5.386;2023-06-14T14:52:53;172289.72;;;29.23;26.15
64243;BME280;50573;51.512;5.386;2023-06-14T15:02:59;172325.84;;;29.36;27.04
64243;BME280;50573;51.512;5.386;2023-06-14T15:13:04;172348.63;;;29.45;27.40
64243;BME280;50573;51.512;5.386;2023-06-14T15:23:08;172066.00;;;28.39;28.74
64243;BME280;50573;51.512;5.386;2023-06-14T15:33:14;171846.47;;;27.57;29.59
64243;BME280;50573;51.512;5.386;2023-06-14T15:43:22;171681.88;;;26.95;30.73
64243;BME280;50573;51.512;5.386;2023-06-14T15:53:27;171680.50;;;26.94;31.39
64243;BME280;50573;51.512;5.386;2023-06-14T16:03:30;171524.03;;;26.36;32.02
64243;BME280;50573;51.512;5.386;2023-06-14T16:13:34;171445.13;;;26.06;31.82
64243;BME280;50573;51.512;5.386;2023-06-14T16:23:37;171394.25;;;25.87;32.44
64243;BME280;50573;51.512;5.386;2023-06-14T16:33:46;171364.81;;;25.76;32.34
64243;BME280;50573;51.512;5.386;2023-06-14T16:43:52;171383.56;;;25.83;32.52
64243;BME280;50573;51.512;5.386;2023-06-14T16:54:04;171330.09;;;25.63;31.98
64243;BME280;50573;51.512;5.386;2023-06-14T17:04:10;171334.09;;;25.64;32.96
64243;BME280;50573;51.512;5.386;2023-06-14T17:14:20;171272.59;;;25.41;32.86
64243;BME280;50573;51.512;5.386;2023-06-14T17:24:26;171249.81;;;25.33;32.29
64243;BME280;50573;51.512;5.386;2023-06-14T17:34:37;171207.06;;;25.17;32.49
64243;BME280;50573;51.512;5.386;2023-06-14T17:44:42;171189.69;;;25.10;32.42
64243;BME280;50573;51.512;5.386;2023-06-14T17:54:54;171195.03;;;25.12;33.85
64243;BME280;50573;51.512;5.386;2023-06-14T18:05:00;171102.81;;;24.78;34.20
64243;BME280;50573;51.512;5.386;2023-06-14T18:15:11;171074.78;;;24.67;36.04
64243;BME280;50573;51.512;5.386;2023-06-14T18:25:17;171064.00;;;24.63;34.76
64243;BME280;50573;51.512;5.386;2023-06-14T18:35:25;171013.25;;;24.44;36.22
64243;BME280;50573;51.512;5.386;2023-06-14T18:45:34;170949.13;;;24.20;36.60
64243;BME280;50573;51.512;5.386;2023-06-14T18:55:43;170907.69;;;24.04;36.92
64243;BME280;50573;51.512;5.386;2023-06-14T19:05:51;170880.97;;;23.94;37.07
64243;BME280;50573;51.512;5.386;2023-06-14T19:15:58;170808.81;;;23.67;37.32
64243;BME280;50573;51.512;5.386;2023-06-14T19:26:05;170750.06;;;23.45;37.65
64243;BME280;50573;51.512;5.386;2023-06-14T19:36:19;170697.94;;;23.25;38.31
64243;BME280;50573;51.512;5.386;2023-06-14T19:46:23;170581.81;;;22.82;39.88
64243;BME280;50573;51.512;5.386;2023-06-14T19:56:28;170478.97;;;22.43;41.23
64243;BME280;50573;51.512;5.386;2023-06-14T20:06:31;170378.88;;;22.06;42.37
64243;BME280;50573;51.512;5.386;2023-06-14T20:16:36;170280.09;;;21.68;44.27
64243;BME280;50573;51.512;5.386;2023-06-14T20:26:39;170200.03;;;21.38;45.15
64243;BME280;50573;51.512;5.386;2023-06-14T20:36:43;170112.03;;;21.05;47.39
64243;BME280;50573;51.512;5.386;2023-06-14T20:46:46;170042.63;;;20.79;48.24
64243;BME280;50573;51.512;5.386;2023-06-14T20:56:51;169985.28;;;20.57;48.71
64243;BME280;50573;51.512;5.386;2023-06-14T21:06:54;169915.97;;;20.31;49.46
64243;BME280;50573;51.512;5.386;2023-06-14T21:16:59;169867.97;;;20.13;50.57
64243;BME280;50573;51.512;5.386;2023-06-14T21:27:03;169817.25;;;19.94;51.84
64243;BME280;50573;51.512;5.386;2023-06-14T21:37:07;169760.00;;;19.73;52.49
64243;BME280;50573;51.512;5.386;2023-06-14T21:47:13;169710.66;;;19.54;52.97
64243;BME280;50573;51.512;5.386;2023-06-14T21:57:17;169688.00;;;19.46;53.76
64243;BME280;50573;51.512;5.386;2023-06-14T22:07:20;169658.69;;;19.35;54.85
64243;BME280;50573;51.512;5.386;2023-06-14T22:17:24;169608.03;;;19.15;56.20
64243;BME280;50573;51.512;5.386;2023-06-14T22:27:31;169570.75;;;19.01;56.04
64243;BME280;50573;51.512;5.386;2023-06-14T22:37:35;169528.06;;;18.85;57.12
64243;BME280;50573;51.512;5.386;2023-06-14T22:47:39;169481.47;;;18.68;58.01
64243;BME280;50573;51.512;5.386;2023-06-14T22:57:44;169426.88;;;18.47;59.28
64243;BME280;50573;51.512;5.386;2023-06-14T23:07:49;169400.19;;;18.37;60.15
64243;BME280;50573;51.512;5.386;2023-06-14T23:17:54;169354.94;;;18.20;61.08
64243;BME280;50573;51.512;5.386;2023-06-14T23:27:58;169308.34;;;18.03;61.18
64243;BME280;50573;51.512;5.386;2023-06-14T23:38:06;169263.03;;;17.85;62.31
64243;BME280;50573;51.512;5.386;2023-06-14T23:48:14;169219.09;;;17.69;62.88
64243;BME280;50573;51.512;5.386;2023-06-14T23:58:19;169177.84;;;17.53;64.02
